CheckWX is a tool to help pilots better visualize weather data.  It is not intended as a substitute for an official pre-flight weather briefing.

03:37:21 UTC

2J3 METAR
Louisville Municipal Airport
Louisville, Georgia, USA
Current

22 mins ago

K2J3 270315Z AUTO 00000KT 10SM CLR 25/22 A3005 RMK AO2 T02510216
Observed
May-27 @ 03:15 UTC
Visibility
10 SM
Flight Rules
VFR
Cloud Levels
  • Clear skies
Temperature
25°C / 77°F
Dewpoint
22°C / 72°F
Humidity
83%
Altimeter
30.05" Hg
Pressure
1017.62 hPa
Previous

42 mins ago

K2J3 270255Z AUTO 00000KT 10SM CLR 25/21 A3006 RMK AO2 T02530213
Observed
May-27 @ 02:55 UTC
Visibility
10 SM
Flight Rules
VFR
Cloud Levels
  • Clear skies
Temperature
25°C / 77°F
Dewpoint
21°C / 70°F
Humidity
79%
Altimeter
30.06" Hg
Pressure
1017.92 hPa
Previous

1 hour ago

K2J3 270235Z AUTO 00000KT 10SM CLR 26/21 A3005 RMK AO2 T02620215
Observed
May-27 @ 02:35 UTC
Visibility
10 SM
Flight Rules
VFR
Cloud Levels
  • Clear skies
Temperature
26°C / 79°F
Dewpoint
22°C / 72°F
Humidity
79%
Altimeter
30.05" Hg
Pressure
1017.62 hPa